Página principal
METAR-TAF:

METAR-TAF

Aeroportos :

Matagami, Quebec, Canadá

latitude: 49-46N, longitude: 077-49W, altura: 281 m

Observação actual do tempo

O boletim foi feito há 17 minutos, às 21:58 UTC
Vento 7 kt de es-nordeste, variando entre norte e es-nordeste
Temperatura 0°C
Humidade 100%
Pressão 1017 hPa
Visibilidade: 1.6 km
Nuvens dispersasa uma altura de 500 ft
Nuvens fragmentadasa uma altura de 1000 ft
Encobertoa uma altura de 1400 ft
neve fraca

METAR: CYNM 232158Z AUTO 06007KT 360V070 1SM -SN SCT005 BKN010 OVC014 M00/M00 A3004 RMK ICG INTMT SLP191

Hora: 18:15 (22:15 UTC)


TAF: em falta

Observações e previsões do tempo de mais de 4000 aeroportos (mensagens METAR e TAF).

As estações disponíveis são os pontos amarelos e vermelhos sobre o mapa.

Mova o rato sobre o mapa para ver o nome da estação.

Depois clique no ponto para visualizar as observações e previsões meteorológicas.

Para alterar o mapa : clique nos botões verdes com uma cruz preta para aumentar o zoom; no botão verde com uma pitada de zoom; ou nas setas verdes para mapas adjacentes.


METAR-TAF: